Time;durP1;ratioP1;P1;durP2;ratioP2;P2;SDS_P1;SDS_P2;PMS_P1;PMS_P2;Temp;Humidity;BMP_temperature;BMP_pressure;BME280_temperature;BME280_humidity;BME280_pressure;Samples;Min_cycle;Max_cycle;Signal;HPM_P1;HPM_P2
2022/02/27 00:00:53;;;;;;;10.23;3.05;;;;;;;3.59;88.20;99800.03;5035547;28;20030;-78
2022/02/27 00:03:19;;;;;;;3.58;2.25;;;;;;;3.38;88.24;99818.31;5035482;28;20052;-78
2022/02/27 00:05:44;;;;;;;2.97;2.63;;;;;;;3.23;88.78;99802.31;5035297;28;20452;-77
2022/02/27 00:08:12;;;;;;;3.83;2.70;;;;;;;3.15;89.00;99796.50;5035332;28;20123;-77
2022/02/27 00:10:40;;;;;;;6.45;3.70;;;;;;;3.24;89.41;99793.72;5035486;28;20044;-77
2022/02/27 00:13:08;;;;;;;4.63;3.17;;;;;;;3.44;89.08;99814.28;5034915;28;20038;-77
2022/02/27 00:15:36;;;;;;;5.47;4.00;;;;;;;3.37;89.19;99800.22;5036895;28;20036;-77
2022/02/27 00:18:05;;;;;;;2.85;2.63;;;;;;;3.28;89.03;99810.38;5035170;28;20029;-77
2022/02/27 00:20:30;;;;;;;6.78;4.65;;;;;;;3.37;89.82;99822.22;5034997;28;20032;-77
2022/02/27 00:22:58;;;;;;;8.65;4.55;;;;;;;3.38;89.40;99821.06;5035140;28;20029;-77
2022/02/27 00:25:24;;;;;;;5.25;3.55;;;;;;;3.61;88.60;99819.75;5034928;28;20526;-77
2022/02/27 00:27:53;;;;;;;6.57;3.47;;;;;;;3.73;89.49;99819.13;5034883;28;20037;-77
2022/02/27 00:30:22;;;;;;;5.57;3.70;;;;;;;3.64;88.75;99824.63;5034887;28;20116;-77
2022/02/27 00:32:50;;;;;;;6.13;3.42;;;;;;;3.56;88.84;99828.19;5036207;28;20140;-77
2022/02/27 00:35:15;;;;;;;9.88;4.20;;;;;;;3.52;89.15;99810.72;5035588;28;20084;-77
2022/02/27 00:37:41;;;;;;;5.28;3.85;;;;;;;3.56;89.21;99816.38;5034888;28;20476;-77
2022/02/27 00:40:10;;;;;;;9.57;4.95;;;;;;;3.77;91.31;99800.00;5034873;28;20033;-76
2022/02/27 00:42:37;;;;;;;10.45;4.40;;;;;;;3.90;90.31;99810.00;5035353;28;20421;-77
2022/02/27 00:45:05;;;;;;;5.88;3.97;;;;;;;3.99;90.12;99802.53;5035078;28;20064;-77
2022/02/27 00:47:30;;;;;;;5.47;4.30;;;;;;;4.05;89.40;99795.72;5035216;28;20029;-77
2022/02/27 00:49:56;;;;;;;6.30;4.05;;;;;;;4.13;89.16;99803.13;5018475;28;20092;-77
2022/02/27 00:52:24;;;;;;;6.50;4.35;;;;;;;4.30;88.84;99812.47;5035527;28;20039;-77
2022/02/27 00:54:52;;;;;;;3.47;2.75;;;;;;;4.44;86.41;99813.06;5035357;28;20037;-77
2022/02/27 00:57:24;;;;;;;3.33;2.15;;;;;;;4.54;83.92;99818.22;5034536;28;20029;-76
2022/02/27 00:59:50;;;;;;;2.28;1.58;;;;;;;4.69;81.46;99808.59;5034329;28;20551;-76
2022/02/27 01:02:21;;;;;;;2.75;2.47;;;;;;;4.78;80.36;99822.31;5034152;28;20030;-76
2022/02/27 01:04:49;;;;;;;7.50;4.07;;;;;;;4.48;83.56;99814.03;5034027;28;20120;-76
2022/02/27 01:07:17;;;;;;;3.70;3.15;;;;;;;4.40;84.75;99818.44;5033929;28;20029;-77
2022/02/27 01:09:43;;;;;;;5.57;3.13;;;;;;;4.44;85.97;99840.63;5033762;28;20030;-77
2022/02/27 01:12:14;;;;;;;6.72;3.45;;;;;;;4.11;85.27;99804.63;5034228;28;20088;-77
2022/02/27 01:14:40;;;;;;;3.25;2.42;;;;;;;4.21;83.46;99831.81;5033794;28;20032;-77
2022/02/27 01:17:06;;;;;;;4.05;2.88;;;;;;;4.36;84.14;99833.19;5033967;28;20038;-77
2022/02/27 01:19:38;;;;;;;5.43;3.38;;;;;;;4.42;84.80;99834.63;5033313;28;20056;-77
2022/02/27 01:22:03;;;;;;;4.60;2.67;;;;;;;4.41;84.50;99825.53;5033482;28;20029;-77
2022/02/27 01:24:30;;;;;;;2.15;1.90;;;;;;;4.54;80.63;99829.25;5033467;28;20040;-77
2022/02/27 01:26:58;;;;;;;1.50;1.35;;;;;;;4.76;78.05;99836.41;5033125;28;20030;-76
2022/02/27 01:29:24;;;;;;;2.15;1.30;;;;;;;4.87;76.90;99825.81;5033292;28;20033;-77
2022/02/27 01:31:52;;;;;;;1.80;1.60;;;;;;;4.96;75.34;99834.84;5033574;28;20057;-76
2022/02/27 01:34:20;;;;;;;1.25;1.10;;;;;;;4.98;74.56;99838.09;5033467;28;20120;-76
2022/02/27 01:36:48;;;;;;;2.25;0.93;;;;;;;5.06;73.50;99840.00;5033109;28;20029;-76
2022/02/27 01:39:16;;;;;;;0.80;0.70;;;;;;;5.18;73.06;99831.78;5034581;28;20029;-76
2022/02/27 01:41:45;;;;;;;1.00;1.00;;;;;;;5.21;72.82;99842.13;5033042;28;20036;-77
2022/02/27 01:44:11;;;;;;;2.60;0.90;;;;;;;5.37;70.57;99833.25;5034057;28;20026;-76
2022/02/27 01:47:07;;;;;;;0.70;0.70;;;;;;;5.47;69.91;99827.34;5033032;28;20034;-77
2022/02/27 01:49:40;;;;;;;0.80;0.80;;;;;;;5.62;69.34;99828.69;5032560;28;20026;-76
2022/02/27 01:52:08;;;;;;;1.15;0.88;;;;;;;5.77;66.36;99830.81;5032568;28;20095;-77
2022/02/27 01:54:34;;;;;;;0.90;0.90;;;;;;;5.84;66.37;99841.31;5033373;28;20120;-75
2022/02/27 01:56:59;;;;;;;1.60;1.02;;;;;;;5.86;66.24;99830.72;5032907;28;20037;-75
2022/02/27 01:59:28;;;;;;;1.27;1.17;;;;;;;5.93;66.34;99833.78;5032688;28;20029;-76
2022/02/27 02:01:56;;;;;;;1.20;1.10;;;;;;;5.99;64.82;99840.69;5032742;28;20030;-76
2022/02/27 02:04:22;;;;;;;1.05;0.98;;;;;;;6.00;65.08;99840.34;5033030;28;20553;-75
2022/02/27 02:06:50;;;;;;;0.82;0.82;;;;;;;6.10;63.72;99825.31;5032714;28;20032;-75
2022/02/27 02:09:23;;;;;;;1.13;1.02;;;;;;;6.11;63.93;99826.91;5032674;28;20036;-75
2022/02/27 02:11:52;;;;;;;2.15;1.30;;;;;;;6.11;63.98;99826.91;5032994;28;20033;-75
2022/02/27 02:14:21;;;;;;;1.08;1.05;;;;;;;6.11;63.16;99790.22;5033956;28;20418;-75
2022/02/27 02:16:49;;;;;;;1.27;1.10;;;;;;;6.18;62.44;99827.19;5033129;28;20037;-75
2022/02/27 02:19:20;;;;;;;1.92;1.35;;;;;;;6.21;62.55;99839.50;5033469;28;20028;-75
2022/02/27 02:21:49;;;;;;;1.08;1.08;;;;;;;6.25;62.69;99829.38;5033231;28;20065;-75
2022/02/27 02:24:22;;;;;;;3.20;1.35;;;;;;;6.32;61.23;99832.38;5033482;28;20041;-75
2022/02/27 02:26:48;;;;;;;1.38;0.90;;;;;;;6.40;60.47;99852.78;5033614;28;20069;-75
2022/02/27 02:29:18;;;;;;;1.23;1.13;;;;;;;6.47;60.91;99853.03;5049089;28;20025;-75
2022/02/27 02:31:48;;;;;;;1.00;1.00;;;;;;;6.39;61.32;99867.72;5032010;28;20046;-75
2022/02/27 02:34:19;;;;;;;1.23;1.13;;;;;;;6.40;61.12;99864.66;5033646;28;20549;-76
2022/02/27 02:36:51;;;;;;;1.00;0.90;;;;;;;6.34;61.42;99859.66;5032391;28;20025;-75
2022/02/27 02:39:19;;;;;;;1.33;1.20;;;;;;;6.34;60.83;99862.41;5032283;28;20116;-75
2022/02/27 02:41:47;;;;;;;0.82;0.82;;;;;;;6.37;60.84;99859.00;5032373;28;20028;-75
2022/02/27 02:44:16;;;;;;;1.27;1.17;;;;;;;6.37;61.57;99843.22;5032856;28;20061;-75
2022/02/27 02:46:42;;;;;;;1.05;1.00;;;;;;;6.38;60.17;99841.25;5032592;28;20116;-75
2022/02/27 02:49:11;;;;;;;2.65;1.08;;;;;;;6.37;60.19;99847.94;5033337;28;20372;-74
2022/02/27 02:51:37;;;;;;;1.10;0.95;;;;;;;6.48;59.16;99854.63;5032497;28;20091;-75
2022/02/27 02:54:07;;;;;;;0.90;0.90;;;;;;;6.43;60.08;99850.13;5032237;28;20068;-74
2022/02/27 02:56:33;;;;;;;1.10;1.00;;;;;;;6.43;60.22;99839.06;5032179;28;20033;-75
2022/02/27 02:58:59;;;;;;;0.73;0.70;;;;;;;6.47;59.48;99836.44;5032388;28;20029;-75
2022/02/27 03:01:33;;;;;;;1.20;0.95;;;;;;;6.39;59.88;99829.88;5032725;28;20487;-75
2022/02/27 03:04:03;;;;;;;1.27;1.17;;;;;;;6.42;60.32;99836.66;5036012;28;20087;-75
2022/02/27 03:06:32;;;;;;;1.23;1.13;;;;;;;6.41;59.88;99841.38;5036232;28;20164;-75
2022/02/27 03:08:58;;;;;;;4.43;2.95;;;;;;;6.44;61.10;99850.94;5035922;28;20029;-75
2022/02/27 03:11:26;;;;;;;6.60;3.95;;;;;;;6.33;61.19;99864.38;5037190;28;20052;-75
2022/02/27 03:14:00;;;;;;;2.30;1.30;;;;;;;6.37;61.39;99873.59;5035806;28;20063;-75
2022/02/27 03:16:31;;;;;;;6.03;3.05;;;;;;;6.28;61.97;99873.72;5035788;28;20061;-75
2022/02/27 03:18:57;;;;;;;3.35;2.22;;;;;;;6.28;61.04;99870.97;5036172;28;20063;-75
2022/02/27 03:21:25;;;;;;;1.67;1.55;;;;;;;6.24;60.82;99872.78;5035681;28;20088;-75
2022/02/27 03:23:53;;;;;;;1.60;1.50;;;;;;;6.30;60.27;99884.41;5036266;28;20402;-75
2022/02/27 03:26:22;;;;;;;1.02;1.02;;;;;;;6.32;59.45;99881.31;5035940;28;20361;-75
2022/02/27 03:28:51;;;;;;;1.38;1.25;;;;;;;6.34;59.28;99888.13;5035875;28;20360;-75
2022/02/27 03:31:22;;;;;;;2.20;1.20;;;;;;;6.31;60.80;99886.03;5035638;28;20037;-75
2022/02/27 03:33:48;;;;;;;2.92;1.27;;;;;;;6.28;60.27;99879.25;5035382;28;20087;-75
2022/02/27 03:36:13;;;;;;;1.33;1.23;;;;;;;6.17;60.98;99882.75;5035870;28;20041;-75
2022/02/27 03:38:40;;;;;;;1.48;1.33;;;;;;;6.22;60.23;99864.00;5035563;28;20124;-75
2022/02/27 03:41:08;;;;;;;2.55;1.70;;;;;;;6.18;60.44;99862.25;5036161;28;20463;-75
2022/02/27 03:43:36;;;;;;;3.30;1.92;;;;;;;6.16;60.20;99873.66;5035788;28;20048;-75
2022/02/27 03:46:02;;;;;;;1.73;1.60;;;;;;;6.20;59.91;99874.59;5035318;28;20026;-75
2022/02/27 03:48:30;;;;;;;2.33;1.60;;;;;;;6.23;59.57;99882.22;5035202;28;20040;-75
2022/02/27 03:50:58;;;;;;;2.65;1.50;;;;;;;6.23;59.50;99886.91;5035111;28;20022;-75
2022/02/27 03:53:26;;;;;;;1.40;1.30;;;;;;;6.22;59.51;99891.63;5035617;28;20375;-75
2022/02/27 03:55:55;;;;;;;3.72;1.90;;;;;;;6.24;58.37;99900.41;5035033;28;20074;-75
2022/02/27 03:58:23;;;;;;;1.95;1.60;;;;;;;6.46;56.38;99901.16;5034983;28;20094;-75
2022/02/27 04:00:49;;;;;;;2.95;2.40;;;;;;;6.56;55.93;99895.19;5035139;28;20024;-75
2022/02/27 04:03:19;;;;;;;3.65;2.20;;;;;;;6.52;56.30;99897.81;5035391;28;20029;-75
2022/02/27 04:05:47;;;;;;;2.25;2.00;;;;;;;6.58;55.77;99898.41;5034852;28;20025;-75
2022/02/27 04:08:18;;;;;;;2.95;2.70;;;;;;;6.57;55.83;99905.09;5034689;28;20069;-75
2022/02/27 04:10:46;;;;;;;3.00;2.33;;;;;;;6.60;55.28;99922.94;5034796;28;20044;-75
2022/02/27 04:13:14;;;;;;;11.07;5.55;;;;;;;6.51;57.17;99909.22;5034346;28;20112;-76
2022/02/27 04:15:42;;;;;;;4.53;3.50;;;;;;;6.41;57.99;99920.72;5034655;28;20491;-75
2022/02/27 04:18:12;;;;;;;6.15;4.88;;;;;;;6.38;58.23;99926.91;5034564;28;20036;-75
2022/02/27 04:20:38;;;;;;;6.57;3.22;;;;;;;6.37;58.20;99926.13;5034489;28;20032;-75
2022/02/27 04:23:06;;;;;;;6.88;5.80;;;;;;;6.24;58.54;99925.28;5034569;28;20034;-75
2022/02/27 04:25:34;;;;;;;7.00;3.70;;;;;;;6.25;58.23;99932.41;5034493;28;20036;-75
2022/02/27 04:28:00;;;;;;;6.05;4.03;;;;;;;6.27;57.60;99932.88;5034447;28;20040;-74
2022/02/27 04:30:25;;;;;;;4.60;2.97;;;;;;;6.23;58.05;99934.72;5034966;28;20021;-74
2022/02/27 04:32:51;;;;;;;5.13;2.90;;;;;;;6.20;58.34;99948.38;5034240;28;20491;-75
2022/02/27 04:35:19;;;;;;;9.27;3.53;;;;;;;6.16;57.33;99937.19;5034539;28;20439;-75
2022/02/27 04:37:47;;;;;;;4.07;2.50;;;;;;;6.13;58.03;99960.00;5034159;28;20458;-75
2022/02/27 04:40:15;;;;;;;4.13;2.90;;;;;;;6.18;56.37;99951.50;5034963;28;20403;-74
2022/02/27 04:42:43;;;;;;;5.03;3.22;;;;;;;6.19;56.19;99955.06;5034185;28;20040;-74
2022/02/27 04:45:09;;;;;;;6.03;3.15;;;;;;;6.17;56.39;99952.63;5050749;28;20026;-74
2022/02/27 04:47:38;;;;;;;6.85;3.05;;;;;;;6.20;56.08;99957.50;5034041;28;20072;-74
2022/02/27 04:50:04;;;;;;;6.97;3.30;;;;;;;6.20;55.28;99976.81;5033989;28;20479;-74
2022/02/27 04:52:32;;;;;;;5.50;2.80;;;;;;;6.30;53.30;99970.88;5034546;28;20125;-74
2022/02/27 04:55:01;;;;;;;5.95;2.53;;;;;;;6.33;52.99;99963.84;5034918;28;20057;-74
2022/02/27 04:57:31;;;;;;;14.00;3.75;;;;;;;6.41;53.38;99970.47;5033895;28;20037;-74
2022/02/27 05:00:00;;;;;;;10.32;3.47;;;;;;;6.42;52.17;99972.06;5033488;28;20112;-74
2022/02/27 05:02:31;;;;;;;7.40;3.85;;;;;;;6.44;52.75;99986.34;5033805;28;20467;-74
2022/02/27 05:04:59;;;;;;;6.38;3.42;;;;;;;6.43;52.26;99982.78;5033984;28;20025;-75
2022/02/27 05:07:30;;;;;;;7.70;3.63;;;;;;;6.42;52.71;99994.19;5033651;28;20033;-75
2022/02/27 05:09:55;;;;;;;8.40;4.38;;;;;;;6.43;52.90;99985.53;5034904;28;20025;-74
2022/02/27 05:12:23;;;;;;;9.07;4.78;;;;;;;6.35;53.52;99993.94;5033566;28;20041;-74
2022/02/27 05:14:51;;;;;;;11.18;4.70;;;;;;;6.23;54.52;99983.63;5033517;28;20033;-74
2022/02/27 05:17:17;;;;;;;4.55;3.33;;;;;;;6.21;55.06;99992.25;5050959;28;20172;-74
2022/02/27 05:19:45;;;;;;;11.88;3.85;;;;;;;6.21;54.83;100016.31;5049948;28;20493;-74
2022/02/27 05:22:13;;;;;;;6.45;3.65;;;;;;;6.12;55.31;99991.50;5033422;28;20041;-74
2022/02/27 05:24:41;;;;;;;7.88;3.60;;;;;;;6.04;55.80;99992.41;5032677;28;20035;-74
2022/02/27 05:27:07;;;;;;;6.93;3.28;;;;;;;6.03;56.11;99999.88;5033249;28;20041;-75
2022/02/27 05:29:32;;;;;;;5.20;3.30;;;;;;;6.00;55.27;99999.72;5033314;28;20041;-74
2022/02/27 05:32:00;;;;;;;9.70;3.42;;;;;;;5.95;56.18;100019.25;5033404;28;20046;-74
2022/02/27 05:34:29;;;;;;;7.35;3.78;;;;;;;5.88;56.42;100016.22;5033474;28;20357;-74
2022/02/27 05:36:57;;;;;;;7.10;3.85;;;;;;;5.81;56.64;100018.69;5033897;28;20095;-75
2022/02/27 05:39:23;;;;;;;7.53;3.85;;;;;;;5.92;56.18;100031.00;5034762;28;20036;-73
2022/02/27 05:41:49;;;;;;;3.53;3.20;;;;;;;5.78;56.35;100023.72;5034391;28;20030;-74
2022/02/27 05:44:14;;;;;;;5.53;3.55;;;;;;;5.82;57.62;100034.13;5035140;28;20033;-74
2022/02/27 05:46:43;;;;;;;12.55;4.78;;;;;;;5.72;56.32;100030.59;5034709;28;20037;-74
2022/02/27 05:49:11;;;;;;;12.02;4.63;;;;;;;5.65;57.34;100033.09;5034295;28;20052;-74
2022/02/27 05:51:39;;;;;;;60.03;19.85;;;;;;;5.72;57.54;100043.59;5032930;28;20026;-74
2022/02/27 05:54:07;;;;;;;55.15;20.73;;;;;;;5.81;57.12;100052.63;5032954;28;20036;-74
2022/02/27 05:56:35;;;;;;;31.08;14.10;;;;;;;5.79;57.70;100050.19;5032873;28;20045;-75
2022/02/27 05:59:03;;;;;;;22.38;10.05;;;;;;;5.66;57.58;100042.16;5016854;28;20029;-74
2022/02/27 06:01:28;;;;;;;16.05;7.65;;;;;;;5.78;56.93;100070.66;5017048;28;20037;-74
2022/02/27 06:03:54;;;;;;;12.98;7.32;;;;;;;5.76;57.56;100083.19;5016306;28;20384;-74
2022/02/27 06:06:22;;;;;;;14.57;8.10;;;;;;;5.71;57.15;100086.97;5016454;28;20119;-74
2022/02/27 06:08:50;;;;;;;8.38;5.20;;;;;;;5.73;57.35;100094.91;5016442;28;20236;-74
2022/02/27 06:11:18;;;;;;;11.55;6.63;;;;;;;5.76;57.18;100089.53;5016111;28;20028;-74
2022/02/27 06:13:44;;;;;;;7.93;5.18;;;;;;;5.83;56.96;100099.22;5016115;28;20034;-74
2022/02/27 06:16:09;;;;;;;8.50;4.38;;;;;;;6.22;55.27;100096.09;5016046;28;20068;-74
2022/02/27 06:18:42;;;;;;;11.10;5.05;;;;;;;6.67;53.12;100103.72;5016335;28;20028;-74
2022/02/27 06:21:13;;;;;;;15.25;4.20;;;;;;;6.62;52.82;100092.88;5016571;28;20440;-74
2022/02/27 06:23:39;;;;;;;6.70;4.57;;;;;;;6.71;52.23;100099.13;5016039;28;20025;-74
2022/02/27 06:26:09;;;;;;;6.43;4.47;;;;;;;7.40;51.21;100077.41;5016326;28;20051;-75
2022/02/27 06:28:38;;;;;;;6.78;3.88;;;;;;;8.17;47.65;100102.47;5016840;28;20071;-75
2022/02/27 06:31:08;;;;;;;8.90;3.70;;;;;;;8.67;45.12;100107.56;5016774;28;20092;-75
2022/02/27 06:33:36;;;;;;;5.00;2.72;;;;;;;9.22;43.37;100099.59;5016146;28;20080;-74
2022/02/27 06:36:04;;;;;;;5.22;3.05;;;;;;;9.29;43.60;100110.88;5017912;28;20040;-74
2022/02/27 06:38:35;;;;;;;8.93;3.70;;;;;;;9.79;42.04;100126.84;5019609;28;20030;-74
2022/02/27 06:41:03;;;;;;;8.25;3.72;;;;;;;10.52;40.81;100127.41;5019808;28;20017;-74
2022/02/27 06:43:32;;;;;;;8.98;3.42;;;;;;;10.64;41.35;100135.63;5019817;28;20030;-74
2022/02/27 06:46:05;;;;;;;7.03;3.47;;;;;;;11.22;39.33;100147.56;5020082;28;20415;-74
2022/02/27 06:48:30;;;;;;;9.80;3.80;;;;;;;10.13;42.23;100146.75;5019966;28;20037;-74
2022/02/27 06:50:59;;;;;;;7.47;3.50;;;;;;;10.10;42.41;100166.91;5019719;28;20430;-74
2022/02/27 06:53:24;;;;;;;8.10;4.30;;;;;;;10.47;43.19;100171.03;5019612;28;20120;-74
2022/02/27 06:55:50;;;;;;;15.20;3.90;;;;;;;11.24;41.13;100169.50;5019681;28;20116;-74
2022/02/27 06:58:18;;;;;;;8.02;3.38;;;;;;;11.69;40.16;100173.50;5019865;28;20033;-74
2022/02/27 07:00:45;;;;;;;7.57;3.67;;;;;;;11.87;40.08;100177.44;5037512;28;20029;-74
2022/02/27 07:03:11;;;;;;;7.32;4.10;;;;;;;12.01;39.05;100180.47;5019466;28;20026;-74
2022/02/27 07:05:41;;;;;;;6.82;3.42;;;;;;;12.83;38.82;100180.91;5019306;28;20026;-74
2022/02/27 07:08:07;;;;;;;8.77;4.28;;;;;;;12.68;39.19;100165.97;5019281;28;20033;-74
2022/02/27 07:10:35;;;;;;;9.70;5.65;;;;;;;12.34;38.47;100187.38;5019268;28;20033;-74
2022/02/27 07:13:01;;;;;;;11.13;4.97;;;;;;;12.47;39.19;100188.00;5019380;28;20065;-74
2022/02/27 07:15:30;;;;;;;29.83;14.43;;;;;;;12.26;39.77;100185.69;5037314;28;20040;-74
2022/02/27 07:18:00;;;;;;;10.82;7.30;;;;;;;12.43;38.40;100178.75;5019200;28;20029;-74
2022/02/27 07:20:26;;;;;;;14.30;6.57;;;;;;;12.48;39.13;100182.03;5036958;28;20104;-74
2022/02/27 07:22:52;;;;;;;10.45;5.50;;;;;;;12.88;36.96;100188.97;5020030;28;20478;-74
2022/02/27 07:25:20;;;;;;;9.02;6.80;;;;;;;13.17;36.50;100183.75;5019067;28;20164;-74
2022/02/27 07:27:48;;;;;;;8.98;4.95;;;;;;;13.42;37.15;100184.88;5019203;28;20388;-75
2022/02/27 07:30:22;;;;;;;8.43;4.90;;;;;;;13.48;35.08;100183.38;5019754;28;20021;-75
2022/02/27 07:33:10;;;;;;;8.43;5.07;;;;;;;12.85;34.25;100198.13;5007651;28;20058;-75
2022/02/27 07:35:39;;;;;;;14.23;8.10;;;;;;;13.00;35.04;100191.53;5000554;28;20032;-76
2022/02/27 07:38:14;;;;;;;8.00;4.15;;;;;;;12.61;35.13;100190.19;5000582;28;20496;-75
2022/02/27 07:40:51;;;;;;;13.35;5.90;;;;;;;12.51;35.78;100203.59;5017663;28;20025;-75
2022/02/27 07:43:21;;;;;;;8.40;4.25;;;;;;;12.11;36.12;100183.84;4999731;28;20389;-75
2022/02/27 07:45:50;;;;;;;21.77;11.32;;;;;;;12.45;35.55;100191.16;4999315;28;20033;-74
2022/02/27 07:48:17;;;;;;;3.83;3.28;;;;;;;11.49;36.41;100206.16;4998887;28;20036;-75
2022/02/27 07:50:43;;;;;;;8.38;3.85;;;;;;;11.82;35.83;100194.47;4999544;28;20026;-75
2022/02/27 07:53:11;;;;;;;9.23;4.55;;;;;;;12.03;35.79;100211.56;4999067;28;20468;-74
2022/02/27 07:55:37;;;;;;;36.20;15.15;;;;;;;11.87;36.51;100218.44;4998961;28;20037;-74
2022/02/27 07:58:06;;;;;;;26.60;13.45;;;;;;;12.01;37.90;100222.31;4999185;28;20041;-74
2022/02/27 08:00:34;;;;;;;32.85;15.63;;;;;;;11.77;37.14;100219.84;5015342;28;20452;-74
2022/02/27 08:03:00;;;;;;;13.48;6.22;;;;;;;12.58;36.52;100225.25;5015071;28;20044;-74
2022/02/27 08:05:29;;;;;;;7.32;4.38;;;;;;;11.70;36.48;100225.28;4998721;28;20029;-74
2022/02/27 08:07:57;;;;;;;15.80;5.72;;;;;;;11.57;36.88;100210.72;4998894;28;20030;-74
2022/02/27 08:10:25;;;;;;;7.35;4.82;;;;;;;10.97;36.61;100222.25;4998691;28;20472;-74
2022/02/27 08:12:53;;;;;;;13.98;10.43;;;;;;;11.67;35.89;100209.31;4998960;28;20034;-74
2022/02/27 08:15:19;;;;;;;40.22;22.13;;;;;;;12.36;35.66;100218.53;4998580;28;20030;-74
2022/02/27 08:17:45;;;;;;;60.22;30.33;;;;;;;12.86;36.18;100222.06;4998509;28;20109;-74
2022/02/27 08:20:14;;;;;;;16.15;7.57;;;;;;;12.00;34.92;100222.69;4999028;28;20021;-74
2022/02/27 08:22:42;;;;;;;18.73;11.65;;;;;;;11.91;36.08;100222.94;4998234;28;20045;-75
2022/02/27 08:25:11;;;;;;;19.85;10.68;;;;;;;12.73;35.63;100217.88;4999070;28;20468;-75
2022/02/27 08:27:37;;;;;;;20.10;12.68;;;;;;;12.18;34.35;100234.94;5015968;28;20034;-74
2022/02/27 08:30:03;;;;;;;14.65;9.45;;;;;;;12.05;34.79;100237.13;4998306;28;20045;-75
2022/02/27 08:32:31;;;;;;;23.33;13.13;;;;;;;12.35;34.61;100230.03;4997903;28;20133;-74
2022/02/27 08:35:00;;;;;;;16.65;7.82;;;;;;;12.43;34.45;100217.81;4998139;28;20022;-74
2022/02/27 08:37:31;;;;;;;14.20;6.85;;;;;;;12.62;33.95;100216.91;4998126;28;20030;-74
2022/02/27 08:39:58;;;;;;;41.85;20.13;;;;;;;13.17;33.67;100217.28;4998525;28;20040;-74
2022/02/27 08:42:26;;;;;;;23.67;12.68;;;;;;;12.88;33.59;100216.09;4998399;28;20034;-74
2022/02/27 08:44:53;;;;;;;11.27;5.15;;;;;;;12.41;34.29;100226.59;5015530;28;20109;-74
2022/02/27 08:47:21;;;;;;;15.25;7.00;;;;;;;12.53;33.94;100231.94;5014230;28;20025;-74
2022/02/27 08:49:49;;;;;;;44.30;22.98;;;;;;;12.96;33.14;100238.16;4997904;28;20034;-74
2022/02/27 08:52:15;;;;;;;45.85;21.45;;;;;;;12.94;34.21;100225.75;4997833;28;20057;-74
2022/02/27 08:54:41;;;;;;;29.63;15.82;;;;;;;13.71;33.06;100222.34;4997516;28;20030;-74
2022/02/27 08:57:09;;;;;;;9.95;5.38;;;;;;;13.19;32.47;100229.69;4998094;28;20034;-74
2022/02/27 08:59:37;;;;;;;14.32;8.15;;;;;;;13.94;32.53;100233.38;4996627;28;20029;-74
2022/02/27 09:02:06;;;;;;;12.10;7.10;;;;;;;13.30;33.76;100238.22;4997590;28;20057;-74
2022/02/27 09:04:31;;;;;;;11.15;5.90;;;;;;;13.63;32.77;100235.47;4997717;28;20040;-74
2022/02/27 09:07:02;;;;;;;12.57;7.75;;;;;;;14.25;30.80;100246.06;4997725;28;20034;-74
2022/02/27 09:09:30;;;;;;;6.15;3.83;;;;;;;14.12;31.00;100234.34;4997856;28;20538;-74
2022/02/27 09:11:58;;;;;;;6.38;3.72;;;;;;;14.65;30.73;100238.81;4997964;28;20112;-74
2022/02/27 09:14:29;;;;;;;7.82;3.97;;;;;;;14.14;30.97;100250.75;5006670;28;20051;-74
2022/02/27 09:16:57;;;;;;;14.30;5.75;;;;;;;14.23;30.38;100237.25;5003088;28;20090;-75
2022/02/27 09:19:25;;;;;;;15.07;7.18;;;;;;;13.66;31.80;100245.06;5001027;28;20146;-75
2022/02/27 09:21:51;;;;;;;10.82;4.55;;;;;;;14.01;31.12;100208.28;5000585;28;20101;-74
2022/02/27 09:24:19;;;;;;;6.43;4.78;;;;;;;14.30;30.63;100237.31;4982225;28;20022;-74
2022/02/27 09:26:47;;;;;;;5.95;3.85;;;;;;;15.58;30.37;100237.28;4995750;28;20045;-75
2022/02/27 09:29:15;;;;;;;9.27;4.65;;;;;;;16.44;29.21;100255.09;4994272;28;20030;-75
2022/02/27 09:31:41;;;;;;;20.13;8.23;;;;;;;17.32;28.08;100243.34;4993734;28;20120;-75
2022/02/27 09:34:09;;;;;;;12.98;5.28;;;;;;;17.57;26.29;100244.03;5012998;28;20030;-75
2022/02/27 09:36:36;;;;;;;8.18;4.40;;;;;;;17.16;28.63;100247.41;5013600;28;20030;-75
2022/02/27 09:39:03;;;;;;;25.83;11.77;;;;;;;16.41;29.94;100257.94;5030049;28;20435;-75
2022/02/27 09:41:33;;;;;;;27.92;14.52;;;;;;;15.05;31.50;100265.88;5030068;28;20037;-75
2022/02/27 09:44:08;;;;;;;23.52;10.55;;;;;;;15.30;32.16;100254.00;5030026;28;20029;-75
2022/02/27 09:46:41;;;;;;;115.28;50.00;;;;;;;14.39;33.75;100242.59;5013879;28;20120;-74
2022/02/27 09:49:09;;;;;;;106.50;50.20;;;;;;;14.51;33.55;100242.31;5014932;28;20026;-75
2022/02/27 09:51:35;;;;;;;20.45;9.32;;;;;;;14.59;34.54;100241.16;5015432;28;20033;-75
2022/02/27 09:54:00;;;;;;;25.88;13.75;;;;;;;14.50;33.62;100239.91;5015537;28;20494;-75
2022/02/27 09:56:26;;;;;;;12.38;7.03;;;;;;;14.87;33.09;100245.38;5030428;28;20030;-75
2022/02/27 09:58:54;;;;;;;8.88;5.72;;;;;;;15.80;31.38;100243.78;5029608;28;20026;-76
2022/02/27 10:01:22;;;;;;;5.85;4.75;;;;;;;16.14;30.38;100249.88;5030023;28;20481;-76
2022/02/27 10:03:50;;;;;;;8.82;5.28;;;;;;;16.32;30.29;100260.31;5029512;28;20176;-75
2022/02/27 10:06:18;;;;;;;14.35;5.95;;;;;;;16.22;29.98;100251.50;5029392;28;20037;-75
2022/02/27 10:08:55;;;;;;;15.45;7.35;;;;;;;16.58;28.41;100257.13;5029621;28;20476;-75
2022/02/27 10:11:27;;;;;;;6.47;4.70;;;;;;;15.44;30.45;100262.47;5012665;28;20088;-75
2022/02/27 10:13:59;;;;;;;11.68;5.60;;;;;;;15.37;30.16;100263.25;5033857;28;20048;-74
2022/02/27 10:16:27;;;;;;;6.70;4.70;;;;;;;16.36;29.28;100273.16;5035719;28;20556;-75
2022/02/27 10:18:56;;;;;;;6.32;4.10;;;;;;;15.70;29.31;100270.59;5035920;28;20029;-75
2022/02/27 10:21:26;;;;;;;9.07;4.30;;;;;;;17.22;29.01;100267.47;5035704;28;20056;-76
2022/02/27 10:23:56;;;;;;;12.40;5.03;;;;;;;17.03;29.03;100272.34;5035987;28;20539;-75
2022/02/27 10:26:23;;;;;;;8.45;4.93;;;;;;;17.54;28.91;100267.38;5035841;28;20040;-76
2022/02/27 10:29:11;;;;;;;12.00;5.45;;;;;;;17.31;28.68;100269.84;5035735;28;20029;-76
2022/02/27 10:31:40;;;;;;;12.30;5.30;;;;;;;17.86;27.73;100277.72;5035883;28;20029;-75
2022/02/27 10:34:26;;;;;;;7.50;4.97;;;;;;;18.05;27.20;100271.53;5035354;28;20084;-77
2022/02/27 10:37:08;;;;;;;8.80;5.05;;;;;;;17.67;26.75;100264.88;5036239;28;20033;-77
2022/02/27 10:39:44;;;;;;;7.65;4.43;;;;;;;17.25;27.63;100270.25;5036652;28;20044;-75
2022/02/27 10:42:14;;;;;;;15.60;8.05;;;;;;;16.65;28.71;100268.34;5053439;28;20032;-75
2022/02/27 10:44:43;;;;;;;12.35;8.20;;;;;;;16.65;29.37;100276.78;5035695;28;20032;-76
2022/02/27 10:47:13;;;;;;;10.98;5.97;;;;;;;17.25;27.68;100273.06;5035632;28;20024;-75
2022/02/27 10:49:39;;;;;;;10.52;6.40;;;;;;;17.48;27.42;100274.63;5036092;28;20044;-76
2022/02/27 10:52:11;;;;;;;8.73;4.45;;;;;;;17.39;28.04;100277.06;5035845;28;20463;-75
2022/02/27 10:54:42;;;;;;;10.27;5.82;;;;;;;17.95;26.96;100278.03;5036050;28;20036;-75
2022/02/27 10:57:25;;;;;;;10.82;6.35;;;;;;;18.35;26.46;100272.97;5053111;28;20057;-76
2022/02/27 10:59:55;;;;;;;7.07;5.25;;;;;;;18.69;25.57;100273.09;5034859;28;20549;-76
2022/02/27 11:02:27;;;;;;;5.55;4.32;;;;;;;18.67;26.18;100276.31;5035451;28;20033;-75
2022/02/27 11:04:53;;;;;;;6.30;4.32;;;;;;;18.84;25.06;100274.59;5053907;28;20124;-76
2022/02/27 11:07:22;;;;;;;7.88;4.80;;;;;;;18.67;26.47;100279.13;5035516;28;20071;-77
2022/02/27 11:09:52;;;;;;;7.40;4.50;;;;;;;18.59;26.95;100272.78;5054073;28;20090;-76
2022/02/27 11:12:20;;;;;;;10.68;5.25;;;;;;;18.59;27.24;100274.78;5034121;28;20059;-76
2022/02/27 11:14:50;;;;;;;7.78;5.28;;;;;;;17.07;28.62;100261.09;5034587;28;20495;-75
2022/02/27 11:17:19;;;;;;;14.10;5.65;;;;;;;14.89;30.60;100282.97;5035089;28;20029;-75
2022/02/27 11:19:45;;;;;;;8.68;4.70;;;;;;;13.77;31.43;100267.53;5035384;28;20114;-75
2022/02/27 11:22:11;;;;;;;6.95;4.80;;;;;;;14.27;31.23;100260.44;5035289;28;20075;-75
2022/02/27 11:24:38;;;;;;;6.70;4.65;;;;;;;14.15;31.84;100274.72;5039533;28;20036;-75
2022/02/27 11:27:09;;;;;;;17.98;10.82;;;;;;;14.00;31.46;100270.97;5038909;28;20029;-75
2022/02/27 11:29:35;;;;;;;10.70;6.20;;;;;;;14.10;32.33;100269.50;5038635;28;20029;-75
2022/02/27 11:32:01;;;;;;;11.52;5.63;;;;;;;13.96;32.31;100258.97;5036251;28;20052;-75
2022/02/27 11:34:28;;;;;;;15.98;6.60;;;;;;;13.96;32.80;100264.56;5019427;28;20395;-75